sensor_id;sensor_type;location;lat;lon;timestamp;pressure;altitude;pressure_sealevel;temperature;humidity
4745;BME280;2386;42.138;24.746;2023-05-03T00:00:00;100170.53;;;15.02;52.46
4745;BME280;2386;42.138;24.746;2023-05-03T00:02:25;100164.50;;;15.00;51.74
4745;BME280;2386;42.138;24.746;2023-05-03T00:04:51;100165.88;;;14.86;52.45
4745;BME280;2386;42.138;24.746;2023-05-03T00:07:18;100160.00;;;14.77;54.28
4745;BME280;2386;42.138;24.746;2023-05-03T00:09:43;100157.34;;;14.65;54.58
4745;BME280;2386;42.138;24.746;2023-05-03T00:12:09;100156.78;;;14.80;54.36
4745;BME280;2386;42.138;24.746;2023-05-03T00:14:34;100148.41;;;14.87;53.41
4745;BME280;2386;42.138;24.746;2023-05-03T00:17:00;100145.38;;;15.00;53.15
4745;BME280;2386;42.138;24.746;2023-05-03T00:19:25;100157.28;;;14.94;53.08
4745;BME280;2386;42.138;24.746;2023-05-03T00:21:58;100159.28;;;14.82;54.78
4745;BME280;2386;42.138;24.746;2023-05-03T00:24:23;100164.31;;;14.90;53.66
4745;BME280;2386;42.138;24.746;2023-05-03T00:26:49;100162.16;;;14.92;53.05
4745;BME280;2386;42.138;24.746;2023-05-03T00:29:14;100157.53;;;14.92;53.44
4745;BME280;2386;42.138;24.746;2023-05-03T00:31:42;100151.41;;;14.85;53.91
4745;BME280;2386;42.138;24.746;2023-05-03T00:34:08;100149.44;;;14.97;52.91
4745;BME280;2386;42.138;24.746;2023-05-03T00:36:33;100142.31;;;14.96;53.41
4745;BME280;2386;42.138;24.746;2023-05-03T00:38:59;100145.78;;;14.92;53.06
4745;BME280;2386;42.138;24.746;2023-05-03T00:41:25;100143.28;;;14.90;53.38
4745;BME280;2386;42.138;24.746;2023-05-03T00:43:51;100142.06;;;14.81;53.94
4745;BME280;2386;42.138;24.746;2023-05-03T00:46:16;100148.84;;;14.78;54.11
4745;BME280;2386;42.138;24.746;2023-05-03T00:48:42;100139.00;;;14.77;54.42
4745;BME280;2386;42.138;24.746;2023-05-03T00:51:09;100140.50;;;14.85;54.49
4745;BME280;2386;42.138;24.746;2023-05-03T00:53:37;100140.50;;;14.85;54.30
4745;BME280;2386;42.138;24.746;2023-05-03T00:56:02;100144.31;;;14.56;55.21
4745;BME280;2386;42.138;24.746;2023-05-03T00:58:31;100134.03;;;14.46;56.00
4745;BME280;2386;42.138;24.746;2023-05-03T01:00:57;100141.09;;;14.59;55.89
4745;BME280;2386;42.138;24.746;2023-05-03T01:03:23;100144.69;;;14.48;56.04
4745;BME280;2386;42.138;24.746;2023-05-03T01:06:43;100148.13;;;14.55;55.77
4745;BME280;2386;42.138;24.746;2023-05-03T01:08:48;100139.06;;;14.14;57.22
4745;BME280;2386;42.138;24.746;2023-05-03T01:14:23;100143.88;;;14.35;56.64
4745;BME280;2386;42.138;24.746;2023-05-03T01:16:56;100138.41;;;14.35;57.39
4745;BME280;2386;42.138;24.746;2023-05-03T01:19:29;100142.41;;;14.16;58.31
4745;BME280;2386;42.138;24.746;2023-05-03T01:22:13;100145.53;;;14.08;58.18
4745;BME280;2386;42.138;24.746;2023-05-03T01:24:44;100138.91;;;14.32;57.76
4745;BME280;2386;42.138;24.746;2023-05-03T01:27:11;100127.97;;;14.44;57.69
4745;BME280;2386;42.138;24.746;2023-05-03T01:29:37;100119.66;;;14.51;59.22
4745;BME280;2386;42.138;24.746;2023-05-03T01:32:06;100124.63;;;14.54;57.02
4745;BME280;2386;42.138;24.746;2023-05-03T01:37:34;100126.53;;;14.53;56.49
4745;BME280;2386;42.138;24.746;2023-05-03T01:40:05;100125.94;;;14.51;57.11
4745;BME280;2386;42.138;24.746;2023-05-03T01:42:34;100126.44;;;14.36;56.87
4745;BME280;2386;42.138;24.746;2023-05-03T01:45:02;100134.22;;;14.56;55.67
4745;BME280;2386;42.138;24.746;2023-05-03T01:47:28;100130.47;;;14.45;55.64
4745;BME280;2386;42.138;24.746;2023-05-03T01:49:54;100125.84;;;14.46;55.67
4745;BME280;2386;42.138;24.746;2023-05-03T01:52:19;100118.00;;;14.38;57.36
4745;BME280;2386;42.138;24.746;2023-05-03T01:54:45;100118.00;;;14.38;56.03
4745;BME280;2386;42.138;24.746;2023-05-03T01:57:10;100105.50;;;14.54;54.84
4745;BME280;2386;42.138;24.746;2023-05-03T01:59:35;100108.81;;;14.56;54.90
4745;BME280;2386;42.138;24.746;2023-05-03T02:02:01;100103.16;;;14.45;55.16
4745;BME280;2386;42.138;24.746;2023-05-03T02:04:27;100102.47;;;14.38;55.53
4745;BME280;2386;42.138;24.746;2023-05-03T02:06:53;100104.25;;;14.33;55.32
4745;BME280;2386;42.138;24.746;2023-05-03T02:09:19;100108.41;;;14.35;55.21
4745;BME280;2386;42.138;24.746;2023-05-03T02:11:45;100112.03;;;14.53;54.91
4745;BME280;2386;42.138;24.746;2023-05-03T02:14:10;100112.63;;;14.55;55.02
4745;BME280;2386;42.138;24.746;2023-05-03T02:16:36;100117.94;;;14.61;55.23
4745;BME280;2386;42.138;24.746;2023-05-03T02:19:01;100110.28;;;14.46;55.58
4745;BME280;2386;42.138;24.746;2023-05-03T02:21:27;100111.03;;;14.30;55.84
4745;BME280;2386;42.138;24.746;2023-05-03T02:23:52;100117.91;;;14.33;55.43
4745;BME280;2386;42.138;24.746;2023-05-03T02:26:18;100116.34;;;14.37;55.62
4745;BME280;2386;42.138;24.746;2023-05-03T02:28:44;100126.22;;;14.26;57.05
4745;BME280;2386;42.138;24.746;2023-05-03T02:31:09;100122.81;;;14.19;56.35
4745;BME280;2386;42.138;24.746;2023-05-03T02:33:34;100118.97;;;14.32;56.39
4745;BME280;2386;42.138;24.746;2023-05-03T02:36:00;100115.31;;;14.26;56.96
4745;BME280;2386;42.138;24.746;2023-05-03T02:38:25;100118.91;;;14.15;58.13
4745;BME280;2386;42.138;24.746;2023-05-03T02:40:51;100107.81;;;14.05;58.96
4745;BME280;2386;42.138;24.746;2023-05-03T02:43:16;100111.72;;;14.09;58.22
4745;BME280;2386;42.138;24.746;2023-05-03T02:45:42;100112.00;;;14.24;57.68
4745;BME280;2386;42.138;24.746;2023-05-03T02:48:08;100114.59;;;14.31;57.04
4745;BME280;2386;42.138;24.746;2023-05-03T02:50:34;100105.31;;;14.32;57.06
4745;BME280;2386;42.138;24.746;2023-05-03T02:53:00;100100.50;;;14.22;57.75
4745;BME280;2386;42.138;24.746;2023-05-03T02:55:25;100108.00;;;14.15;58.37
4745;BME280;2386;42.138;24.746;2023-05-03T02:57:51;100120.16;;;13.96;58.56
4745;BME280;2386;42.138;24.746;2023-05-03T03:00:16;100129.22;;;13.73;58.50
4745;BME280;2386;42.138;24.746;2023-05-03T03:02:42;100142.63;;;13.63;60.22
4745;BME280;2386;42.138;24.746;2023-05-03T03:05:07;100144.28;;;13.52;61.74
4745;BME280;2386;42.138;24.746;2023-05-03T03:07:33;100147.47;;;13.49;61.98
4745;BME280;2386;42.138;24.746;2023-05-03T03:09:59;100158.25;;;13.56;61.90
4745;BME280;2386;42.138;24.746;2023-05-03T03:12:25;100151.50;;;13.81;61.38
4745;BME280;2386;42.138;24.746;2023-05-03T03:14:52;100158.84;;;13.58;62.40
4745;BME280;2386;42.138;24.746;2023-05-03T03:17:18;100147.94;;;13.46;63.38
4745;BME280;2386;42.138;24.746;2023-05-03T03:19:43;100154.09;;;13.76;61.95
4745;BME280;2386;42.138;24.746;2023-05-03T03:22:09;100159.22;;;13.61;62.75
4745;BME280;2386;42.138;24.746;2023-05-03T03:24:34;100165.84;;;13.77;63.16
4745;BME280;2386;42.138;24.746;2023-05-03T03:26:59;100159.91;;;13.68;63.25
4745;BME280;2386;42.138;24.746;2023-05-03T03:29:25;100157.66;;;13.89;61.73
4745;BME280;2386;42.138;24.746;2023-05-03T03:31:52;100160.63;;;13.75;62.23
4745;BME280;2386;42.138;24.746;2023-05-03T03:34:17;100159.44;;;13.71;62.05
4745;BME280;2386;42.138;24.746;2023-05-03T03:36:42;100172.34;;;13.41;64.47
4745;BME280;2386;42.138;24.746;2023-05-03T03:39:08;100181.97;;;13.32;66.57
4745;BME280;2386;42.138;24.746;2023-05-03T03:41:34;100181.72;;;13.45;67.01
4745;BME280;2386;42.138;24.746;2023-05-03T03:44:00;100192.63;;;13.57;65.99
4745;BME280;2386;42.138;24.746;2023-05-03T03:46:25;100191.06;;;13.49;65.13
4745;BME280;2386;42.138;24.746;2023-05-03T03:48:50;100193.78;;;13.37;65.97
4745;BME280;2386;42.138;24.746;2023-05-03T03:51:16;100193.94;;;13.31;67.47
4745;BME280;2386;42.138;24.746;2023-05-03T03:53:41;100196.16;;;13.45;68.10
4745;BME280;2386;42.138;24.746;2023-05-03T03:56:07;100200.03;;;13.14;69.55
4745;BME280;2386;42.138;24.746;2023-05-03T03:58:33;100203.81;;;13.13;68.33
4745;BME280;2386;42.138;24.746;2023-05-03T04:00:58;100206.94;;;13.17;69.92
4745;BME280;2386;42.138;24.746;2023-05-03T04:03:25;100210.72;;;13.16;69.86
4745;BME280;2386;42.138;24.746;2023-05-03T04:05:50;100215.00;;;13.24;71.06
4745;BME280;2386;42.138;24.746;2023-05-03T04:08:16;100198.78;;;13.40;69.94
4745;BME280;2386;42.138;24.746;2023-05-03T04:10:41;100222.84;;;13.55;70.71
4745;BME280;2386;42.138;24.746;2023-05-03T04:13:07;100221.53;;;13.58;71.62
4745;BME280;2386;42.138;24.746;2023-05-03T04:15:32;100227.91;;;13.40;72.82
4745;BME280;2386;42.138;24.746;2023-05-03T04:17:58;100219.72;;;13.17;74.62
4745;BME280;2386;42.138;24.746;2023-05-03T04:20:23;100231.59;;;13.34;76.85
4745;BME280;2386;42.138;24.746;2023-05-03T04:22:49;100247.00;;;13.28;77.86
4745;BME280;2386;42.138;24.746;2023-05-03T04:25:14;100251.84;;;13.26;80.30
4745;BME280;2386;42.138;24.746;2023-05-03T04:27:41;100262.38;;;13.23;83.86
4745;BME280;2386;42.138;24.746;2023-05-03T04:30:07;100268.91;;;13.03;85.78
4745;BME280;2386;42.138;24.746;2023-05-03T04:32:33;100271.34;;;12.93;87.52
4745;BME280;2386;42.138;24.746;2023-05-03T04:35:03;100296.22;;;12.97;88.51
4745;BME280;2386;42.138;24.746;2023-05-03T04:37:32;100309.31;;;12.88;93.13
4745;BME280;2386;42.138;24.746;2023-05-03T04:39:57;100305.81;;;12.99;93.84
4745;BME280;2386;42.138;24.746;2023-05-03T04:42:23;100305.81;;;12.99;94.41
4745;BME280;2386;42.138;24.746;2023-05-03T04:44:48;100305.81;;;13.18;94.87
4745;BME280;2386;42.138;24.746;2023-05-03T04:47:14;100311.31;;;13.11;100.00
4745;BME280;2386;42.138;24.746;2023-05-03T04:49:39;100313.09;;;12.87;100.00
4745;BME280;2386;42.138;24.746;2023-05-03T04:52:04;100301.75;;;12.90;99.43
4745;BME280;2386;42.138;24.746;2023-05-03T04:54:30;100312.75;;;13.13;100.00
4745;BME280;2386;42.138;24.746;2023-05-03T04:56:56;100321.09;;;13.19;100.00
4745;BME280;2386;42.138;24.746;2023-05-03T04:59:21;100327.31;;;12.89;100.00
4745;BME280;2386;42.138;24.746;2023-05-03T05:01:47;100325.44;;;12.71;100.00
4745;BME280;2386;42.138;24.746;2023-05-03T05:04:12;100338.66;;;12.68;100.00
4745;BME280;2386;42.138;24.746;2023-05-03T05:06:38;100334.13;;;12.80;100.00
4745;BME280;2386;42.138;24.746;2023-05-03T05:09:05;100343.50;;;12.84;100.00
4745;BME280;2386;42.138;24.746;2023-05-03T05:11:31;100350.72;;;12.60;100.00
4745;BME280;2386;42.138;24.746;2023-05-03T05:13:57;100355.44;;;12.65;100.00
4745;BME280;2386;42.138;24.746;2023-05-03T05:16:22;100349.13;;;12.53;100.00
4745;BME280;2386;42.138;24.746;2023-05-03T05:18:48;100348.22;;;12.59;100.00
4745;BME280;2386;42.138;24.746;2023-05-03T05:21:13;100352.72;;;12.65;100.00
4745;BME280;2386;42.138;24.746;2023-05-03T05:23:38;100347.44;;;12.70;100.00
4745;BME280;2386;42.138;24.746;2023-05-03T05:26:04;100339.97;;;12.83;100.00
4745;BME280;2386;42.138;24.746;2023-05-03T05:28:29;100342.75;;;12.77;100.00
4745;BME280;2386;42.138;24.746;2023-05-03T05:30:55;100338.66;;;12.68;100.00
4745;BME280;2386;42.138;24.746;2023-05-03T05:33:20;100341.69;;;12.78;100.00
4745;BME280;2386;42.138;24.746;2023-05-03T05:35:47;100326.13;;;12.85;100.00
4745;BME280;2386;42.138;24.746;2023-05-03T05:38:14;100326.56;;;13.00;100.00
4745;BME280;2386;42.138;24.746;2023-05-03T05:40:41;100328.53;;;12.93;100.00
4745;BME280;2386;42.138;24.746;2023-05-03T05:43:06;100330.13;;;12.82;100.00
4745;BME280;2386;42.138;24.746;2023-05-03T05:45:32;100324.13;;;12.92;100.00
4745;BME280;2386;42.138;24.746;2023-05-03T05:47:58;100329.41;;;13.05;100.00
4745;BME280;2386;42.138;24.746;2023-05-03T05:50:23;100326.97;;;13.15;100.00
4745;BME280;2386;42.138;24.746;2023-05-03T05:52:50;100316.53;;;13.12;100.00
4745;BME280;2386;42.138;24.746;2023-05-03T05:55:17;100315.13;;;13.10;100.00
4745;BME280;2386;42.138;24.746;2023-05-03T05:57:42;100304.06;;;13.05;100.00
4745;BME280;2386;42.138;24.746;2023-05-03T06:00:08;100316.25;;;13.21;100.00
4745;BME280;2386;42.138;24.746;2023-05-03T06:02:41;100310.94;;;13.26;100.00
4745;BME280;2386;42.138;24.746;2023-05-03T06:05:07;100315.00;;;13.35;100.00
4745;BME280;2386;42.138;24.746;2023-05-03T06:07:33;100314.50;;;13.38;100.00
4745;BME280;2386;42.138;24.746;2023-05-03T06:09:58;100305.38;;;13.21;100.00
4745;BME280;2386;42.138;24.746;2023-05-03T06:12:24;100306.75;;;13.53;100.00
4745;BME280;2386;42.138;24.746;2023-05-03T06:14:50;100307.00;;;13.63;100.00
4745;BME280;2386;42.138;24.746;2023-05-03T06:17:15;100314.75;;;13.78;100.00
4745;BME280;2386;42.138;24.746;2023-05-03T06:19:41;100316.28;;;13.86;100.00
4745;BME280;2386;42.138;24.746;2023-05-03T06:22:06;100327.53;;;13.77;100.00
4745;BME280;2386;42.138;24.746;2023-05-03T06:24:32;100317.31;;;13.61;100.00
4745;BME280;2386;42.138;24.746;2023-05-03T06:26:57;100327.28;;;13.67;100.00
4745;BME280;2386;42.138;24.746;2023-05-03T06:29:25;100328.38;;;13.78;100.00
4745;BME280;2386;42.138;24.746;2023-05-03T06:31:51;100322.94;;;13.90;100.00
4745;BME280;2386;42.138;24.746;2023-05-03T06:34:20;100308.34;;;13.72;100.00
4745;BME280;2386;42.138;24.746;2023-05-03T06:36:48;100305.50;;;13.91;100.00
4745;BME280;2386;42.138;24.746;2023-05-03T06:39:14;100303.34;;;13.69;100.00
4745;BME280;2386;42.138;24.746;2023-05-03T06:41:40;100299.25;;;14.02;100.00
4745;BME280;2386;42.138;24.746;2023-05-03T06:44:05;100303.59;;;13.79;100.00
4745;BME280;2386;42.138;24.746;2023-05-03T06:46:33;100306.31;;;13.79;100.00
4745;BME280;2386;42.138;24.746;2023-05-03T06:48:59;100302.19;;;14.12;100.00
4745;BME280;2386;42.138;24.746;2023-05-03T06:51:25;100292.81;;;14.31;100.00
4745;BME280;2386;42.138;24.746;2023-05-03T06:53:57;100285.34;;;14.50;100.00
4745;BME280;2386;42.138;24.746;2023-05-03T06:56:34;100276.66;;;14.65;100.00
4745;BME280;2386;42.138;24.746;2023-05-03T06:59:00;100275.22;;;14.62;100.00
4745;BME280;2386;42.138;24.746;2023-05-03T07:01:26;100280.75;;;14.79;100.00
4745;BME280;2386;42.138;24.746;2023-05-03T07:03:51;100269.41;;;14.59;100.00
4745;BME280;2386;42.138;24.746;2023-05-03T07:06:16;100264.69;;;14.54;100.00
4745;BME280;2386;42.138;24.746;2023-05-03T07:08:42;100285.56;;;14.89;100.00
4745;BME280;2386;42.138;24.746;2023-05-03T07:11:08;100272.66;;;15.12;100.00
4745;BME280;2386;42.138;24.746;2023-05-03T07:13:34;100274.25;;;15.25;100.00
4745;BME280;2386;42.138;24.746;2023-05-03T07:15:59;100275.69;;;14.99;100.00
4745;BME280;2386;42.138;24.746;2023-05-03T07:18:25;100278.06;;;14.96;96.80
4745;BME280;2386;42.138;24.746;2023-05-03T07:20:51;100268.84;;;15.13;96.54
4745;BME280;2386;42.138;24.746;2023-05-03T07:23:16;100265.28;;;15.13;95.24
4745;BME280;2386;42.138;24.746;2023-05-03T07:25:42;100277.56;;;15.27;94.66
4745;BME280;2386;42.138;24.746;2023-05-03T07:28:08;100284.59;;;15.52;93.58
4745;BME280;2386;42.138;24.746;2023-05-03T07:30:33;100286.56;;;15.56;89.38
4745;BME280;2386;42.138;24.746;2023-05-03T07:32:59;100280.22;;;15.67;88.46
4745;BME280;2386;42.138;24.746;2023-05-03T07:35:24;100284.19;;;15.93;90.80
4745;BME280;2386;42.138;24.746;2023-05-03T07:37:51;100287.91;;;16.04;91.75
4745;BME280;2386;42.138;24.746;2023-05-03T07:40:17;100273.22;;;16.10;89.21
4745;BME280;2386;42.138;24.746;2023-05-03T07:42:42;100269.06;;;16.24;86.49
4745;BME280;2386;42.138;24.746;2023-05-03T07:45:08;100262.88;;;15.95;86.14
4745;BME280;2386;42.138;24.746;2023-05-03T07:47:33;100261.31;;;15.83;89.00
4745;BME280;2386;42.138;24.746;2023-05-03T07:50:02;100260.63;;;16.09;89.18
4745;BME280;2386;42.138;24.746;2023-05-03T07:52:29;100271.13;;;16.34;85.70
4745;BME280;2386;42.138;24.746;2023-05-03T07:54:55;100280.28;;;16.44;85.15
4745;BME280;2386;42.138;24.746;2023-05-03T07:57:20;100276.44;;;16.46;81.82
4745;BME280;2386;42.138;24.746;2023-05-03T07:59:47;100266.66;;;16.28;80.26
4745;BME280;2386;42.138;24.746;2023-05-03T08:02:13;100246.44;;;16.12;82.10
4745;BME280;2386;42.138;24.746;2023-05-03T08:04:38;100248.88;;;15.92;82.19
4745;BME280;2386;42.138;24.746;2023-05-03T08:07:04;100254.25;;;16.03;83.75
4745;BME280;2386;42.138;24.746;2023-05-03T08:09:29;100249.66;;;16.26;82.58
4745;BME280;2386;42.138;24.746;2023-05-03T08:11:55;100240.28;;;16.43;79.36
4745;BME280;2386;42.138;24.746;2023-05-03T08:14:22;100242.91;;;16.55;78.59
4745;BME280;2386;42.138;24.746;2023-05-03T08:16:47;100249.53;;;16.59;79.47
4745;BME280;2386;42.138;24.746;2023-05-03T08:19:13;100258.78;;;16.75;78.69
4745;BME280;2386;42.138;24.746;2023-05-03T08:21:38;100263.47;;;16.58;80.96
4745;BME280;2386;42.138;24.746;2023-05-03T08:24:04;100258.28;;;16.78;76.98
4745;BME280;2386;42.138;24.746;2023-05-03T08:26:34;100240.53;;;16.64;76.73
4745;BME280;2386;42.138;24.746;2023-05-03T08:28:59;100231.97;;;16.77;78.39
4745;BME280;2386;42.138;24.746;2023-05-03T08:31:27;100243.34;;;16.91;74.57
4745;BME280;2386;42.138;24.746;2023-05-03T08:33:52;100249.22;;;16.56;74.87
4745;BME280;2386;42.138;24.746;2023-05-03T08:36:18;100244.06;;;16.81;74.03
4745;BME280;2386;42.138;24.746;2023-05-03T08:38:43;100239.28;;;16.71;71.49
4745;BME280;2386;42.138;24.746;2023-05-03T08:41:34;100243.63;;;16.89;72.23
4745;BME280;2386;42.138;24.746;2023-05-03T08:44:00;100233.16;;;17.13;69.15
4745;BME280;2386;42.138;24.746;2023-05-03T08:46:26;100225.81;;;17.19;68.85
4745;BME280;2386;42.138;24.746;2023-05-03T08:48:53;100229.75;;;17.28;68.64
4745;BME280;2386;42.138;24.746;2023-05-03T08:51:22;100227.31;;;17.31;68.72
4745;BME280;2386;42.138;24.746;2023-05-03T08:53:48;100230.31;;;17.30;69.26
4745;BME280;2386;42.138;24.746;2023-05-03T08:56:41;100218.25;;;17.31;69.17
4745;BME280;2386;42.138;24.746;2023-05-03T08:59:07;100219.38;;;17.35;69.21
4745;BME280;2386;42.138;24.746;2023-05-03T09:01:37;100210.38;;;17.39;68.45
4745;BME280;2386;42.138;24.746;2023-05-03T09:04:04;100196.75;;;17.50;68.11
4745;BME280;2386;42.138;24.746;2023-05-03T09:06:30;100201.53;;;17.64;66.71
4745;BME280;2386;42.138;24.746;2023-05-03T09:08:57;100208.25;;;17.79;68.10
4745;BME280;2386;42.138;24.746;2023-05-03T09:11:26;100210.78;;;17.90;66.02
4745;BME280;2386;42.138;24.746;2023-05-03T09:13:52;100210.91;;;18.11;66.53
4745;BME280;2386;42.138;24.746;2023-05-03T09:16:22;100204.41;;;18.27;65.66
4745;BME280;2386;42.138;24.746;2023-05-03T09:19:05;100189.06;;;18.36;64.05
4745;BME280;2386;42.138;24.746;2023-05-03T09:21:34;100192.97;;;18.50;64.24
4745;BME280;2386;42.138;24.746;2023-05-03T09:24:00;100198.22;;;18.52;64.41
4745;BME280;2386;42.138;24.746;2023-05-03T09:26:33;100190.78;;;18.52;65.86
4745;BME280;2386;42.138;24.746;2023-05-03T09:29:01;100185.06;;;18.64;65.29
4745;BME280;2386;42.138;24.746;2023-05-03T09:31:29;100180.41;;;18.69;65.18
4745;BME280;2386;42.138;24.746;2023-05-03T09:33:58;100172.38;;;18.48;64.78
4745;BME280;2386;42.138;24.746;2023-05-03T09:36:24;100177.88;;;18.58;64.40
4745;BME280;2386;42.138;24.746;2023-05-03T09:38:51;100177.06;;;18.52;65.39
4745;BME280;2386;42.138;24.746;2023-05-03T09:41:30;100176.88;;;18.79;64.32
4745;BME280;2386;42.138;24.746;2023-05-03T09:43:56;100186.25;;;18.93;62.79
4745;BME280;2386;42.138;24.746;2023-05-03T09:46:27;100180.22;;;19.07;63.00
4745;BME280;2386;42.138;24.746;2023-05-03T09:48:54;100186.81;;;19.00;62.81
4745;BME280;2386;42.138;24.746;2023-05-03T09:51:22;100185.19;;;19.15;63.38
4745;BME280;2386;42.138;24.746;2023-05-03T09:53:48;100180.47;;;18.90;63.08
4745;BME280;2386;42.138;24.746;2023-05-03T09:56:13;100183.63;;;18.51;63.61
4745;BME280;2386;42.138;24.746;2023-05-03T09:58:40;100188.63;;;18.64;63.91
4745;BME280;2386;42.138;24.746;2023-05-03T10:01:06;100181.81;;;18.82;64.16
4745;BME280;2386;42.138;24.746;2023-05-03T10:03:40;100194.50;;;18.98;63.64
4745;BME280;2386;42.138;24.746;2023-05-03T10:08:48;100210.41;;;18.86;64.73
4745;BME280;2386;42.138;24.746;2023-05-03T10:11:17;100207.66;;;18.86;64.20
4745;BME280;2386;42.138;24.746;2023-05-03T10:13:43;100210.34;;;18.66;65.68
4745;BME280;2386;42.138;24.746;2023-05-03T10:16:11;100219.41;;;18.61;67.36
4745;BME280;2386;42.138;24.746;2023-05-03T10:18:46;100208.66;;;18.60;66.66
4745;BME280;2386;42.138;24.746;2023-05-03T10:21:23;100197.09;;;18.53;67.77
4745;BME280;2386;42.138;24.746;2023-05-03T10:24:11;100184.50;;;18.62;68.21
4745;BME280;2386;42.138;24.746;2023-05-03T10:26:39;100178.19;;;18.66;66.33
4745;BME280;2386;42.138;24.746;2023-05-03T10:29:05;100174.28;;;18.57;68.26
4745;BME280;2386;42.138;24.746;2023-05-03T10:31:51;100165.78;;;18.54;67.34
4745;BME280;2386;42.138;24.746;2023-05-03T10:34:22;100155.66;;;18.64;67.28
4745;BME280;2386;42.138;24.746;2023-05-03T10:36:48;100155.97;;;18.78;67.21
4745;BME280;2386;42.138;24.746;2023-05-03T10:39:15;100158.19;;;18.91;67.65
4745;BME280;2386;42.138;24.746;2023-05-03T10:41:42;100157.66;;;19.10;65.53
4745;BME280;2386;42.138;24.746;2023-05-03T10:44:27;100163.19;;;19.10;64.70
4745;BME280;2386;42.138;24.746;2023-05-03T10:46:53;100163.09;;;18.74;64.66
4745;BME280;2386;42.138;24.746;2023-05-03T10:49:20;100153.28;;;19.14;65.39
4745;BME280;2386;42.138;24.746;2023-05-03T10:51:46;100150.81;;;19.22;62.05
4745;BME280;2386;42.138;24.746;2023-05-03T10:54:12;100149.94;;;19.42;63.48
4745;BME280;2386;42.138;24.746;2023-05-03T10:56:54;100145.84;;;19.60;62.98
4745;BME280;2386;42.138;24.746;2023-05-03T10:59:20;100150.50;;;19.75;62.04
4745;BME280;2386;42.138;24.746;2023-05-03T11:01:49;100158.50;;;19.20;61.34
4745;BME280;2386;42.138;24.746;2023-05-03T11:06:49;100139.22;;;19.35;61.79
4745;BME280;2386;42.138;24.746;2023-05-03T11:09:29;100140.91;;;19.26;63.27
4745;BME280;2386;42.138;24.746;2023-05-03T11:11:54;100134.03;;;19.24;65.31
4745;BME280;2386;42.138;24.746;2023-05-03T11:14:19;100130.72;;;19.22;64.37
4745;BME280;2386;42.138;24.746;2023-05-03T11:16:45;100136.41;;;18.64;66.92
4745;BME280;2386;42.138;24.746;2023-05-03T11:19:15;100133.38;;;18.56;67.08
4745;BME280;2386;42.138;24.746;2023-05-03T11:21:42;100135.03;;;18.57;67.21
4745;BME280;2386;42.138;24.746;2023-05-03T11:24:08;100137.41;;;18.33;68.58
4745;BME280;2386;42.138;24.746;2023-05-03T11:26:37;100136.47;;;18.07;70.65
4745;BME280;2386;42.138;24.746;2023-05-03T11:29:03;100127.19;;;18.13;70.82
4745;BME280;2386;42.138;24.746;2023-05-03T11:31:29;100139.31;;;18.27;72.71
4745;BME280;2386;42.138;24.746;2023-05-03T11:33:55;100129.41;;;18.21;73.59
4745;BME280;2386;42.138;24.746;2023-05-03T11:36:21;100132.47;;;18.30;76.34
4745;BME280;2386;42.138;24.746;2023-05-03T11:38:46;100124.13;;;18.04;75.83
4745;BME280;2386;42.138;24.746;2023-05-03T11:41:16;100115.13;;;18.24;75.52
4745;BME280;2386;42.138;24.746;2023-05-03T11:43:43;100115.13;;;18.24;75.26
4745;BME280;2386;42.138;24.746;2023-05-03T11:46:09;100107.75;;;18.30;74.78
4745;BME280;2386;42.138;24.746;2023-05-03T11:48:36;100087.72;;;18.39;74.57
4745;BME280;2386;42.138;24.746;2023-05-03T11:51:06;100083.06;;;18.45;74.27
4745;BME280;2386;42.138;24.746;2023-05-03T11:53:32;100077.25;;;18.26;74.02
4745;BME280;2386;42.138;24.746;2023-05-03T11:55:59;100081.69;;;18.48;74.19
4745;BME280;2386;42.138;24.746;2023-05-03T11:58:25;100086.34;;;18.42;71.93
4745;BME280;2386;42.138;24.746;2023-05-03T12:00:53;100087.44;;;18.41;70.29
4745;BME280;2386;42.138;24.746;2023-05-03T12:03:21;100090.41;;;18.24;69.08
4745;BME280;2386;42.138;24.746;2023-05-03T12:05:47;100096.34;;;17.96;69.67
4745;BME280;2386;42.138;24.746;2023-05-03T12:08:13;100091.72;;;18.01;69.91
4745;BME280;2386;42.138;24.746;2023-05-03T12:10:40;100087.34;;;18.05;70.47
4745;BME280;2386;42.138;24.746;2023-05-03T12:13:05;100073.84;;;17.99;70.34
4745;BME280;2386;42.138;24.746;2023-05-03T12:15:35;100072.75;;;18.00;71.29
4745;BME280;2386;42.138;24.746;2023-05-03T12:18:06;100079.38;;;18.09;72.26
4745;BME280;2386;42.138;24.746;2023-05-03T12:20:33;100088.13;;;18.01;72.76
4745;BME280;2386;42.138;24.746;2023-05-03T12:23:01;100084.34;;;18.12;71.80
4745;BME280;2386;42.138;24.746;2023-05-03T12:25:31;100077.72;;;18.08;72.10
4745;BME280;2386;42.138;24.746;2023-05-03T12:27:58;100088.69;;;18.03;72.52
4745;BME280;2386;42.138;24.746;2023-05-03T12:30:25;100076.63;;;18.04;72.77
4745;BME280;2386;42.138;24.746;2023-05-03T12:32:51;100077.66;;;17.93;73.23
4745;BME280;2386;42.138;24.746;2023-05-03T12:35:18;100079.91;;;18.01;72.14
4745;BME280;2386;42.138;24.746;2023-05-03T12:37:45;100067.00;;;18.06;71.18
4745;BME280;2386;42.138;24.746;2023-05-03T12:40:12;100062.34;;;18.02;71.74
4745;BME280;2386;42.138;24.746;2023-05-03T12:42:41;100055.22;;;18.06;71.53
4745;BME280;2386;42.138;24.746;2023-05-03T12:45:07;100057.13;;;18.05;71.96
4745;BME280;2386;42.138;24.746;2023-05-03T12:47:33;100051.28;;;17.87;72.41
4745;BME280;2386;42.138;24.746;2023-05-03T12:49:59;100031.03;;;17.98;71.53
4745;BME280;2386;42.138;24.746;2023-05-03T12:52:25;100035.47;;;18.14;69.83
4745;BME280;2386;42.138;24.746;2023-05-03T12:54:51;100029.97;;;18.09;69.58
4745;BME280;2386;42.138;24.746;2023-05-03T12:57:16;100028.06;;;18.20;69.62
4745;BME280;2386;42.138;24.746;2023-05-03T12:59:42;100033.31;;;18.36;68.17
4745;BME280;2386;42.138;24.746;2023-05-03T13:02:09;100033.91;;;18.49;66.97
4745;BME280;2386;42.138;24.746;2023-05-03T13:04:34;100029.50;;;18.43;66.78
4745;BME280;2386;42.138;24.746;2023-05-03T13:07:00;100010.25;;;18.32;66.11